createdAt,value
2022-12-03T00:00:53.478Z,79.09
2022-12-03T00:01:53.487Z,79.30
2022-12-03T00:02:53.591Z,79.09
2022-12-03T00:03:53.654Z,79.09
2022-12-03T00:04:53.709Z,79.30
2022-12-03T00:05:53.392Z,79.23
2022-12-03T00:06:53.411Z,79.30
2022-12-03T00:07:53.418Z,79.19
2022-12-03T00:08:53.355Z,79.54
2022-12-03T00:09:53.375Z,79.60
2022-12-03T00:10:53.413Z,79.64
2022-12-03T00:11:53.320Z,79.60
2022-12-03T00:12:53.379Z,79.40
2022-12-03T00:13:53.301Z,79.60
2022-12-03T00:14:53.612Z,79.50
2022-12-03T00:15:53.335Z,79.40
2022-12-03T00:16:53.301Z,79.40
2022-12-03T00:17:53.305Z,79.60
2022-12-03T00:18:53.270Z,79.50
2022-12-03T00:19:53.266Z,79.40
2022-12-03T00:20:53.223Z,79.40
2022-12-03T00:21:53.219Z,79.50
2022-12-03T00:22:53.222Z,79.40
2022-12-03T00:23:53.186Z,79.60
2022-12-03T00:24:53.720Z,79.60
2022-12-03T00:25:53.182Z,79.60
2022-12-03T00:26:53.158Z,79.30
2022-12-03T00:27:53.145Z,79.71
2022-12-03T00:28:53.135Z,79.40
2022-12-03T00:29:53.136Z,79.40
2022-12-03T00:30:53.163Z,79.30
2022-12-03T00:31:53.093Z,79.60
2022-12-03T00:32:53.115Z,79.60
2022-12-03T00:33:53.104Z,79.71
2022-12-03T00:34:53.470Z,79.71
2022-12-03T00:35:53.054Z,79.71
2022-12-03T00:36:53.079Z,79.09
2022-12-03T00:37:53.041Z,79.19
2022-12-03T00:38:53.022Z,79.30
2022-12-03T00:39:53.005Z,79.09
2022-12-03T00:40:53.021Z,78.88
2022-12-03T00:41:52.984Z,79.19
2022-12-03T00:42:53.023Z,78.99
2022-12-03T00:43:52.967Z,79.09
2022-12-03T00:44:53.344Z,79.19
2022-12-03T00:45:52.943Z,79.09
2022-12-03T00:46:53.004Z,79.30
2022-12-03T00:47:52.919Z,79.19
2022-12-03T00:48:52.921Z,79.19
2022-12-03T00:49:52.923Z,79.09
2022-12-03T00:50:52.888Z,79.40
2022-12-03T00:51:52.875Z,79.40
2022-12-03T00:52:52.866Z,79.30
2022-12-03T00:53:52.850Z,79.40
2022-12-03T00:54:53.221Z,79.40
2022-12-03T00:55:52.852Z,79.30
2022-12-03T00:56:52.824Z,79.40
2022-12-03T00:57:52.808Z,79.40
2022-12-03T00:58:52.803Z,79.40
2022-12-03T00:59:52.789Z,79.09
2022-12-03T01:00:52.831Z,79.09
2022-12-03T01:01:52.877Z,79.30
2022-12-03T01:02:52.753Z,79.40
2022-12-03T01:03:52.735Z,79.40
2022-12-03T01:04:53.126Z,79.19
2022-12-03T01:05:52.741Z,79.44
2022-12-03T01:06:52.762Z,79.33
2022-12-03T01:07:52.767Z,79.09
2022-12-03T01:08:52.685Z,79.30
2022-12-03T01:09:52.681Z,79.30
2022-12-03T01:10:52.656Z,79.30
2022-12-03T01:11:52.655Z,79.33
2022-12-03T01:12:52.652Z,79.09
2022-12-03T01:13:52.652Z,79.23
2022-12-03T01:14:52.954Z,79.19
2022-12-03T01:15:52.666Z,79.09
2022-12-03T01:16:52.595Z,78.99
2022-12-03T01:17:52.578Z,79.02
2022-12-03T01:18:52.616Z,79.13
2022-12-03T01:19:52.595Z,78.81
2022-12-03T01:20:52.585Z,79.13
2022-12-03T01:21:52.561Z,79.02
2022-12-03T01:22:52.534Z,79.33
2022-12-03T01:23:52.521Z,79.33
2022-12-03T01:24:52.869Z,79.23
2022-12-03T01:25:52.497Z,79.13
2022-12-03T01:26:52.476Z,79.33
2022-12-03T01:27:52.491Z,79.33
2022-12-03T01:28:52.464Z,79.74
2022-12-03T01:29:52.450Z,79.23
2022-12-03T01:30:52.583Z,79.13
2022-12-03T01:31:52.423Z,79.54
2022-12-03T01:32:52.414Z,79.54
2022-12-03T01:33:52.408Z,79.23
2022-12-03T01:34:52.951Z,79.64
2022-12-03T01:35:52.416Z,79.74
2022-12-03T01:36:52.585Z,79.13
2022-12-03T01:37:52.382Z,78.92
2022-12-03T01:38:52.348Z,79.33
2022-12-03T01:39:52.366Z,79.02
2022-12-03T01:40:52.379Z,78.99
2022-12-03T01:41:52.314Z,79.13
2022-12-03T01:42:52.358Z,79.02
2022-12-03T01:43:52.293Z,79.02
2022-12-03T01:44:52.456Z,79.02
2022-12-03T01:45:52.292Z,79.13
2022-12-03T01:46:52.493Z,79.85
2022-12-03T01:47:52.243Z,79.47
2022-12-03T01:48:52.246Z,79.74
2022-12-03T01:49:52.228Z,79.33
2022-12-03T01:50:52.210Z,79.64
2022-12-03T01:51:52.202Z,79.58
2022-12-03T01:52:52.212Z,79.64
2022-12-03T01:53:52.201Z,79.64
2022-12-03T01:54:52.682Z,79.54
2022-12-03T01:55:52.161Z,79.64
2022-12-03T01:56:52.186Z,79.64
2022-12-03T01:57:52.131Z,79.68
2022-12-03T01:58:52.156Z,79.33
2022-12-03T01:59:52.117Z,79.33
2022-12-03T02:00:52.131Z,79.33
2022-12-03T02:01:52.145Z,79.44
2022-12-03T02:02:52.081Z,79.37
2022-12-03T02:03:52.163Z,79.33
2022-12-03T02:04:52.388Z,79.33
2022-12-03T02:05:52.038Z,79.47
2022-12-03T02:06:52.058Z,79.37
2022-12-03T02:07:52.127Z,79.33
2022-12-03T02:08:52.013Z,79.33
2022-12-03T02:09:52.054Z,79.33
2022-12-03T02:10:52.138Z,79.54
2022-12-03T02:11:51.994Z,79.37
2022-12-03T02:12:52.064Z,79.54
2022-12-03T02:13:51.960Z,79.33
2022-12-03T02:14:52.210Z,79.23
2022-12-03T02:15:51.983Z,79.13
2022-12-03T02:16:52.014Z,79.64
2022-12-03T02:17:51.911Z,79.23
2022-12-03T02:18:51.934Z,79.23
2022-12-03T02:19:51.882Z,79.58
2022-12-03T02:20:51.904Z,79.23
2022-12-03T02:21:51.875Z,79.54
2022-12-03T02:22:51.862Z,79.33
2022-12-03T02:23:51.842Z,79.44
2022-12-03T02:24:52.376Z,79.33
2022-12-03T02:25:51.847Z,79.64
2022-12-03T02:26:51.801Z,79.64
2022-12-03T02:27:51.804Z,79.64
2022-12-03T02:28:51.789Z,79.33
2022-12-03T02:29:51.807Z,79.64
2022-12-03T02:30:51.806Z,79.33
2022-12-03T02:31:51.812Z,79.33
2022-12-03T02:32:51.742Z,79.44
2022-12-03T02:33:51.738Z,79.54
2022-12-03T02:34:52.185Z,79.44
2022-12-03T02:35:51.712Z,79.44
2022-12-03T02:36:51.733Z,79.44
2022-12-03T02:37:51.701Z,79.54
2022-12-03T02:38:51.675Z,79.64
2022-12-03T02:39:51.654Z,79.64
2022-12-03T02:40:51.651Z,79.64
2022-12-03T02:41:51.667Z,79.64
2022-12-03T02:42:51.661Z,79.64
2022-12-03T02:43:51.618Z,79.64
2022-12-03T02:44:52.051Z,79.74
2022-12-03T02:45:51.592Z,79.74
2022-12-03T02:46:51.702Z,79.54
2022-12-03T02:47:51.573Z,79.54
2022-12-03T02:48:51.573Z,79.44
2022-12-03T02:49:51.566Z,79.44
2022-12-03T02:50:51.547Z,79.64
2022-12-03T02:51:51.551Z,79.64
2022-12-03T02:52:51.514Z,79.54
2022-12-03T02:53:51.507Z,79.64
2022-12-03T02:54:52.020Z,79.64
2022-12-03T02:55:51.483Z,79.64
2022-12-03T02:56:51.494Z,79.64
2022-12-03T02:57:51.485Z,79.64
2022-12-03T02:58:51.447Z,79.64
2022-12-03T02:59:51.442Z,79.44
2022-12-03T03:00:51.525Z,79.54
2022-12-03T03:01:51.475Z,79.54
2022-12-03T03:02:51.424Z,79.40
2022-12-03T03:03:51.390Z,79.44
2022-12-03T03:04:51.781Z,79.64
2022-12-03T03:05:51.365Z,79.54
2022-12-03T03:06:51.457Z,79.71
2022-12-03T03:07:51.428Z,79.64
2022-12-03T03:08:51.350Z,79.50
2022-12-03T03:09:51.325Z,79.19
2022-12-03T03:10:51.339Z,79.71
2022-12-03T03:11:51.297Z,79.02
2022-12-03T03:12:51.318Z,79.13
2022-12-03T03:13:51.309Z,79.02
2022-12-03T03:14:51.519Z,79.02
2022-12-03T03:15:51.277Z,79.23
2022-12-03T03:16:51.353Z,79.23
2022-12-03T03:17:51.245Z,79.23
2022-12-03T03:18:51.258Z,79.54
2022-12-03T03:19:51.213Z,79.74
2022-12-03T03:20:51.206Z,79.54
2022-12-03T03:21:51.191Z,79.33
2022-12-03T03:22:51.181Z,79.33
2022-12-03T03:23:51.172Z,79.64
2022-12-03T03:24:51.530Z,79.64
2022-12-03T03:25:51.148Z,79.64
2022-12-03T03:26:51.130Z,79.60
2022-12-03T03:27:51.127Z,79.44
2022-12-03T03:28:51.130Z,79.64
2022-12-03T03:29:51.127Z,79.60
2022-12-03T03:30:51.124Z,79.33
2022-12-03T03:31:51.149Z,79.30
2022-12-03T03:32:51.114Z,79.64
2022-12-03T03:33:51.072Z,79.60
2022-12-03T03:34:51.431Z,79.40
2022-12-03T03:35:51.033Z,79.54
2022-12-03T03:36:51.055Z,79.60
2022-12-03T03:37:51.006Z,79.54
2022-12-03T03:38:51.004Z,79.50
2022-12-03T03:39:50.990Z,79.50
2022-12-03T03:40:50.975Z,79.23
2022-12-03T03:41:50.995Z,78.88
2022-12-03T03:42:51.007Z,79.19
2022-12-03T03:43:50.947Z,79.09
2022-12-03T03:44:51.265Z,79.50
2022-12-03T03:45:51.074Z,78.99
2022-12-03T03:46:50.911Z,79.13
2022-12-03T03:47:50.922Z,79.19
2022-12-03T03:48:50.924Z,79.50
2022-12-03T03:49:50.897Z,79.71
2022-12-03T03:50:50.870Z,79.71
2022-12-03T03:51:50.854Z,79.81
2022-12-03T03:52:50.847Z,79.33
2022-12-03T03:53:50.833Z,79.23
2022-12-03T03:54:51.157Z,79.09
2022-12-03T03:55:50.815Z,79.81
2022-12-03T03:56:50.797Z,79.09
2022-12-03T03:57:50.794Z,79.19
2022-12-03T03:58:50.779Z,79.74
2022-12-03T03:59:50.762Z,79.64
2022-12-03T04:00:50.840Z,79.23
2022-12-03T04:01:50.762Z,79.71
2022-12-03T04:02:50.760Z,79.50
2022-12-03T04:03:50.799Z,79.64
2022-12-03T04:04:50.933Z,79.85
2022-12-03T04:05:50.695Z,79.74
2022-12-03T04:06:50.720Z,79.33
2022-12-03T04:07:50.737Z,79.23
2022-12-03T04:08:50.663Z,79.64
2022-12-03T04:09:50.652Z,79.64
2022-12-03T04:10:50.636Z,79.60
2022-12-03T04:11:50.636Z,79.74
2022-12-03T04:12:50.650Z,79.64
2022-12-03T04:13:50.702Z,79.64
2022-12-03T04:14:50.734Z,79.64
2022-12-03T04:15:50.604Z,79.60
2022-12-03T04:16:50.657Z,79.54
2022-12-03T04:17:50.589Z,79.54
2022-12-03T04:18:50.564Z,79.64
2022-12-03T04:19:50.545Z,79.64
2022-12-03T04:20:50.529Z,79.74
2022-12-03T04:21:50.522Z,79.13
2022-12-03T04:22:50.505Z,79.02
2022-12-03T04:23:50.496Z,79.13
2022-12-03T04:24:50.887Z,79.23
2022-12-03T04:25:50.471Z,79.13
2022-12-03T04:26:50.464Z,79.13
2022-12-03T04:27:50.452Z,79.23
2022-12-03T04:28:50.440Z,79.23
2022-12-03T04:29:50.424Z,79.23
2022-12-03T04:30:50.556Z,79.19
2022-12-03T04:31:50.400Z,79.33
2022-12-03T04:32:50.399Z,79.13
2022-12-03T04:33:50.422Z,79.44
2022-12-03T04:34:50.729Z,79.44
2022-12-03T04:35:50.484Z,79.23
2022-12-03T04:36:50.361Z,79.13
2022-12-03T04:37:50.408Z,79.33
2022-12-03T04:38:50.332Z,79.44
2022-12-03T04:39:50.406Z,79.23
2022-12-03T04:40:50.307Z,79.23
2022-12-03T04:41:50.362Z,79.13
2022-12-03T04:42:50.324Z,79.19
2022-12-03T04:43:50.318Z,79.23
2022-12-03T04:44:50.407Z,79.33
2022-12-03T04:45:50.383Z,79.33
2022-12-03T04:46:50.234Z,79.44
2022-12-03T04:47:50.227Z,79.13
2022-12-03T04:48:50.234Z,79.40
2022-12-03T04:49:50.220Z,79.44
2022-12-03T04:50:50.198Z,79.33
2022-12-03T04:51:50.178Z,79.23
2022-12-03T04:52:50.198Z,79.33
2022-12-03T04:53:50.157Z,79.23
2022-12-03T04:54:50.189Z,79.13
2022-12-03T04:55:50.132Z,79.23
2022-12-03T04:56:50.122Z,79.33
2022-12-03T04:57:50.130Z,79.74
2022-12-03T04:58:50.111Z,79.30
2022-12-03T04:59:50.148Z,79.33
2022-12-03T05:00:50.172Z,79.23
2022-12-03T05:01:50.159Z,79.33
2022-12-03T05:02:50.189Z,79.44
2022-12-03T05:03:50.055Z,79.44
2022-12-03T05:04:50.050Z,79.13
2022-12-03T05:05:50.044Z,78.92
2022-12-03T05:06:50.118Z,79.19
2022-12-03T05:07:50.075Z,79.13
2022-12-03T05:08:49.985Z,79.09
2022-12-03T05:09:50.042Z,79.02
2022-12-03T05:10:49.970Z,79.23
2022-12-03T05:11:49.958Z,79.09
2022-12-03T05:12:49.990Z,79.13
2022-12-03T05:13:49.930Z,78.99
2022-12-03T05:14:49.922Z,79.33
2022-12-03T05:15:49.908Z,79.13
2022-12-03T05:16:49.984Z,79.19
2022-12-03T05:17:49.891Z,79.44
2022-12-03T05:18:49.904Z,79.23
2022-12-03T05:19:49.884Z,79.23
2022-12-03T05:20:53.483Z,79.44
2022-12-03T05:21:49.860Z,79.40
2022-12-03T05:22:49.835Z,79.33
2022-12-03T05:23:49.825Z,79.23
2022-12-03T05:24:49.855Z,79.09
2022-12-03T05:25:49.805Z,79.23
2022-12-03T05:26:49.787Z,79.13
2022-12-03T05:27:49.776Z,79.23
2022-12-03T05:28:49.893Z,79.02
2022-12-03T05:29:49.749Z,79.02
2022-12-03T05:30:49.839Z,79.85
2022-12-03T05:31:49.730Z,79.13
2022-12-03T05:32:49.726Z,79.33
2022-12-03T05:33:49.701Z,79.74
2022-12-03T05:34:49.701Z,79.13
2022-12-03T05:35:49.684Z,79.71
2022-12-03T05:36:49.724Z,79.85
2022-12-03T05:37:49.687Z,79.09
2022-12-03T05:38:49.652Z,79.71
2022-12-03T05:39:49.650Z,79.60
2022-12-03T05:40:49.626Z,79.09
2022-12-03T05:41:49.623Z,79.30
2022-12-03T05:42:49.621Z,79.02
2022-12-03T05:43:49.597Z,79.09
2022-12-03T05:44:49.614Z,79.19
2022-12-03T05:45:49.681Z,79.09
2022-12-03T05:46:49.570Z,79.71
2022-12-03T05:47:49.572Z,79.30
2022-12-03T05:48:49.578Z,79.09
2022-12-03T05:49:49.527Z,79.19
2022-12-03T05:50:49.525Z,79.19
2022-12-03T05:51:52.535Z,79.50
2022-12-03T05:52:50.513Z,78.99
2022-12-03T05:53:49.606Z,79.30
2022-12-03T05:54:49.509Z,79.19
2022-12-03T05:55:49.461Z,79.19
2022-12-03T05:56:49.448Z,79.19
2022-12-03T05:57:49.447Z,79.33
2022-12-03T05:58:49.434Z,79.19
2022-12-03T05:59:49.449Z,79.23
2022-12-03T06:00:49.438Z,79.30
2022-12-03T06:01:49.412Z,79.13
2022-12-03T06:02:49.560Z,79.13
2022-12-03T06:03:49.579Z,79.19
2022-12-03T06:04:49.403Z,79.09
2022-12-03T06:05:49.351Z,79.44
2022-12-03T06:06:49.363Z,79.40
2022-12-03T06:07:49.451Z,78.99
2022-12-03T06:08:49.317Z,79.33
2022-12-03T06:09:49.326Z,79.30
2022-12-03T06:10:49.299Z,79.13
2022-12-03T06:11:49.282Z,79.40
2022-12-03T06:12:49.337Z,79.40
2022-12-03T06:13:49.258Z,79.19
2022-12-03T06:14:49.251Z,78.92
2022-12-03T06:15:49.376Z,79.09
2022-12-03T06:16:49.254Z,79.30
2022-12-03T06:17:49.213Z,79.19
2022-12-03T06:18:49.268Z,79.19
2022-12-03T06:19:49.194Z,79.19
2022-12-03T06:20:49.180Z,78.99
2022-12-03T06:21:49.175Z,79.50
2022-12-03T06:22:49.192Z,79.40
2022-12-03T06:23:49.152Z,79.30
2022-12-03T06:24:49.207Z,79.30
2022-12-03T06:25:49.215Z,79.19
2022-12-03T06:26:49.119Z,79.30
2022-12-03T06:27:49.101Z,78.99
2022-12-03T06:28:49.095Z,78.99
2022-12-03T06:29:49.086Z,79.30
2022-12-03T06:30:49.151Z,79.30
2022-12-03T06:31:49.064Z,79.09
2022-12-03T06:32:49.047Z,79.50
2022-12-03T06:33:49.035Z,79.30
2022-12-03T06:34:49.028Z,79.30
2022-12-03T06:35:49.013Z,79.40
2022-12-03T06:36:49.048Z,79.40
2022-12-03T06:37:49.102Z,79.19
2022-12-03T06:38:48.980Z,79.30
2022-12-03T06:39:48.970Z,79.30
2022-12-03T06:40:48.960Z,79.50
2022-12-03T06:41:48.972Z,79.30
2022-12-03T06:42:48.998Z,79.30
2022-12-03T06:43:48.928Z,79.26
2022-12-03T06:44:48.914Z,79.40
2022-12-03T06:45:48.911Z,79.16
2022-12-03T06:46:48.977Z,79.19
2022-12-03T06:47:48.908Z,79.36
2022-12-03T06:48:48.901Z,79.30
2022-12-03T06:49:48.878Z,79.67
2022-12-03T06:50:48.845Z,79.36
2022-12-03T06:51:48.849Z,79.71
2022-12-03T06:52:48.831Z,79.19
2022-12-03T06:53:48.810Z,79.05
2022-12-03T06:54:48.820Z,79.16
2022-12-03T06:55:48.818Z,78.95
2022-12-03T06:56:48.773Z,78.95
2022-12-03T06:57:48.791Z,78.74
2022-12-03T06:58:48.809Z,78.74
2022-12-03T06:59:48.747Z,79.05
2022-12-03T07:00:48.768Z,78.95
2022-12-03T07:01:48.789Z,78.74
2022-12-03T07:02:48.786Z,78.95
2022-12-03T07:03:48.706Z,78.95
2022-12-03T07:04:48.697Z,79.05
2022-12-03T07:05:48.714Z,79.05
2022-12-03T07:06:48.713Z,78.74
2022-12-03T07:07:48.686Z,78.95
2022-12-03T07:08:48.642Z,78.91
2022-12-03T07:09:48.653Z,78.95
2022-12-03T07:10:48.620Z,79.02
2022-12-03T07:11:48.644Z,79.02
2022-12-03T07:12:48.625Z,79.16
2022-12-03T07:13:48.604Z,79.12
2022-12-03T07:14:48.582Z,78.95
2022-12-03T07:15:48.592Z,78.95
2022-12-03T07:16:48.562Z,79.12
2022-12-03T07:17:48.550Z,79.22
2022-12-03T07:18:48.563Z,78.91
2022-12-03T07:19:48.525Z,78.91
2022-12-03T07:20:48.513Z,78.91
2022-12-03T07:21:48.501Z,79.02
2022-12-03T07:22:48.493Z,78.88
2022-12-03T07:23:48.564Z,78.88
2022-12-03T07:24:48.502Z,78.91
2022-12-03T07:25:48.454Z,78.88
2022-12-03T07:26:48.494Z,78.67
2022-12-03T07:27:48.437Z,78.67
2022-12-03T07:28:48.426Z,78.67
2022-12-03T07:29:48.439Z,78.88
2022-12-03T07:30:48.414Z,78.88
2022-12-03T07:31:48.481Z,78.88
2022-12-03T07:32:48.378Z,78.67
2022-12-03T07:33:48.364Z,78.88
2022-12-03T07:34:48.396Z,78.74
2022-12-03T07:35:48.341Z,78.63
2022-12-03T07:36:48.365Z,78.84
2022-12-03T07:37:48.317Z,78.74
2022-12-03T07:38:48.306Z,78.22
2022-12-03T07:39:48.322Z,78.08
2022-12-03T07:40:48.283Z,78.22
2022-12-03T07:41:48.279Z,78.28
2022-12-03T07:42:48.290Z,78.18
2022-12-03T07:43:48.253Z,77.98
2022-12-03T07:44:48.266Z,78.28
2022-12-03T07:45:48.251Z,78.08
2022-12-03T07:46:48.295Z,77.87
2022-12-03T07:47:48.205Z,78.08
2022-12-03T07:48:48.231Z,77.87
2022-12-03T07:49:48.187Z,77.98
2022-12-03T07:50:48.164Z,77.87
2022-12-03T07:51:48.164Z,77.87
2022-12-03T07:52:48.171Z,77.84
2022-12-03T07:53:48.136Z,77.73
2022-12-03T07:54:48.231Z,78.05
2022-12-03T07:55:48.116Z,78.18
2022-12-03T07:56:48.137Z,78.14
2022-12-03T07:57:48.094Z,78.18
2022-12-03T07:58:48.079Z,77.84
2022-12-03T07:59:48.071Z,78.05
2022-12-03T08:00:48.183Z,78.05
2022-12-03T08:01:48.139Z,77.84
2022-12-03T08:02:48.209Z,78.05
2022-12-03T08:03:48.028Z,78.05
2022-12-03T08:04:48.015Z,78.08
2022-12-03T08:05:48.028Z,77.94
2022-12-03T08:06:48.012Z,77.84
2022-12-03T08:07:48.045Z,78.05
2022-12-03T08:08:47.975Z,77.84
2022-12-03T08:09:47.988Z,78.14
2022-12-03T08:10:47.951Z,78.14
2022-12-03T08:11:47.939Z,77.84
2022-12-03T08:12:47.983Z,78.01
2022-12-03T08:13:47.922Z,77.80
2022-12-03T08:14:47.915Z,78.01
2022-12-03T08:15:47.894Z,78.11
2022-12-03T08:16:48.026Z,77.97
2022-12-03T08:17:47.891Z,77.97
2022-12-03T08:18:47.878Z,78.11
2022-12-03T08:19:47.844Z,78.08
2022-12-03T08:20:47.841Z,77.97
2022-12-03T08:21:47.856Z,78.08
2022-12-03T08:22:47.844Z,77.87
2022-12-03T08:23:47.806Z,77.94
2022-12-03T08:24:47.923Z,78.14
2022-12-03T08:25:47.782Z,78.04
2022-12-03T08:26:47.772Z,78.14
2022-12-03T08:27:47.757Z,78.14
2022-12-03T08:28:47.744Z,78.24
2022-12-03T08:29:47.741Z,78.24
2022-12-03T08:30:47.746Z,78.04
2022-12-03T08:31:47.748Z,78.14
2022-12-03T08:32:47.702Z,78.04
2022-12-03T08:33:47.715Z,78.11
2022-12-03T08:34:47.686Z,78.11
2022-12-03T08:35:47.690Z,78.00
2022-12-03T08:36:47.685Z,78.00
2022-12-03T08:37:47.642Z,78.00
2022-12-03T08:38:47.633Z,77.90
2022-12-03T08:39:47.658Z,78.00
2022-12-03T08:40:47.612Z,77.90
2022-12-03T08:41:47.614Z,78.11
2022-12-03T08:42:47.634Z,77.90
2022-12-03T08:43:47.581Z,78.11
2022-12-03T08:44:47.573Z,77.86
2022-12-03T08:45:47.592Z,77.86
2022-12-03T08:46:47.590Z,77.86
2022-12-03T08:47:47.541Z,77.76
2022-12-03T08:48:49.408Z,77.66
2022-12-03T08:49:47.544Z,77.97
2022-12-03T08:50:47.500Z,77.93
2022-12-03T08:51:47.491Z,77.83
2022-12-03T08:52:47.473Z,77.83
2022-12-03T08:53:47.472Z,77.83
2022-12-03T08:54:47.485Z,77.83
2022-12-03T08:55:47.448Z,77.93
2022-12-03T08:56:47.434Z,77.93
2022-12-03T08:57:47.422Z,77.79
2022-12-03T08:58:47.411Z,77.89
2022-12-03T08:59:47.437Z,77.89
2022-12-03T09:00:47.491Z,77.89
2022-12-03T09:01:47.507Z,78.10
2022-12-03T09:02:47.370Z,78.06
2022-12-03T09:03:47.415Z,77.96
2022-12-03T09:04:47.343Z,78.17
2022-12-03T09:05:47.356Z,77.86
2022-12-03T09:06:47.426Z,77.62
2022-12-03T09:07:47.346Z,77.41
2022-12-03T09:08:47.357Z,77.62
2022-12-03T09:09:47.312Z,77.62
2022-12-03T09:10:47.282Z,77.62
2022-12-03T09:11:47.262Z,77.62
2022-12-03T09:12:47.303Z,77.62
2022-12-03T09:13:47.253Z,77.92
2022-12-03T09:14:47.237Z,77.92
2022-12-03T09:15:47.226Z,77.58
2022-12-03T09:16:47.431Z,77.58
2022-12-03T09:17:47.200Z,77.58
2022-12-03T09:18:47.220Z,77.17
2022-12-03T09:19:47.179Z,76.86
2022-12-03T09:20:47.168Z,76.86
2022-12-03T09:21:47.186Z,76.93
2022-12-03T09:22:47.145Z,77.34
2022-12-03T09:23:47.209Z,77.34
2022-12-03T09:24:47.158Z,77.55
2022-12-03T09:25:47.137Z,77.55
2022-12-03T09:26:47.103Z,77.55
2022-12-03T09:27:47.092Z,77.55
2022-12-03T09:28:47.075Z,77.95
2022-12-03T09:29:47.073Z,77.85
2022-12-03T09:30:47.201Z,77.85
2022-12-03T09:31:47.195Z,77.75
2022-12-03T09:32:47.032Z,77.75
2022-12-03T09:33:47.046Z,77.75
2022-12-03T09:34:47.041Z,77.75
2022-12-03T09:35:47.002Z,77.75
2022-12-03T09:36:47.031Z,77.75
2022-12-03T09:37:47.004Z,77.55
2022-12-03T09:38:48.287Z,77.65
2022-12-03T09:39:46.961Z,77.65
2022-12-03T09:40:46.993Z,77.65
2022-12-03T09:41:46.938Z,77.65
2022-12-03T09:42:46.986Z,77.75
2022-12-03T09:44:03.793Z,77.78
2022-12-03T09:44:47.899Z,77.78
2022-12-03T09:45:46.998Z,77.89
2022-12-03T09:46:46.881Z,77.68
2022-12-03T09:47:46.871Z,77.68
2022-12-03T09:48:46.896Z,77.68
2022-12-03T09:49:46.867Z,77.65
2022-12-03T09:50:46.831Z,77.68
2022-12-03T09:51:46.846Z,77.68
2022-12-03T09:52:46.815Z,77.78
2022-12-03T09:53:46.829Z,77.78
2022-12-03T09:54:47.674Z,77.78
2022-12-03T09:55:46.855Z,77.68
2022-12-03T09:56:46.773Z,77.89
2022-12-03T09:57:46.764Z,77.68
2022-12-03T09:58:46.757Z,77.78
2022-12-03T09:59:46.728Z,77.78
2022-12-03T10:00:46.750Z,77.78
2022-12-03T10:01:46.822Z,77.89
2022-12-03T10:02:46.706Z,77.89
2022-12-03T10:03:46.688Z,77.68
2022-12-03T10:04:46.744Z,77.89
2022-12-03T10:05:48.194Z,77.78
2022-12-03T10:06:46.684Z,77.89
2022-12-03T10:07:46.692Z,77.85
2022-12-03T10:08:46.681Z,77.85
2022-12-03T10:09:46.645Z,77.85
2022-12-03T10:10:46.616Z,77.85
2022-12-03T10:11:46.596Z,77.85
2022-12-03T10:12:46.607Z,77.85
2022-12-03T10:13:46.578Z,77.65
2022-12-03T10:14:46.593Z,77.71
2022-12-03T10:15:46.551Z,77.71
2022-12-03T10:16:46.613Z,77.71
2022-12-03T10:17:46.594Z,77.61
2022-12-03T10:18:46.662Z,77.61
2022-12-03T10:19:46.507Z,77.61
2022-12-03T10:20:46.501Z,77.71
2022-12-03T10:21:46.492Z,77.61
2022-12-03T10:22:46.474Z,77.81
2022-12-03T10:23:48.336Z,77.58
2022-12-03T10:24:46.493Z,77.58
2022-12-03T10:25:46.464Z,77.58
2022-12-03T10:26:46.431Z,77.58
2022-12-03T10:27:46.416Z,77.58
2022-12-03T10:28:46.407Z,77.68
2022-12-03T10:29:46.401Z,77.47
2022-12-03T10:30:46.459Z,77.47
2022-12-03T10:31:46.372Z,77.33
2022-12-03T10:32:46.363Z,77.33
2022-12-03T10:33:46.357Z,77.64
2022-12-03T10:34:46.345Z,77.54
2022-12-03T10:35:46.331Z,77.54
2022-12-03T10:36:46.352Z,77.44
2022-12-03T10:37:46.326Z,77.74
2022-12-03T10:38:46.292Z,77.74
2022-12-03T10:39:49.900Z,77.61
2022-12-03T10:40:47.281Z,77.64
2022-12-03T10:41:46.360Z,77.74
2022-12-03T10:42:46.283Z,77.71
2022-12-03T10:43:46.242Z,77.61
2022-12-03T10:44:46.224Z,77.71
2022-12-03T10:45:46.284Z,77.61
2022-12-03T10:46:46.321Z,77.71
2022-12-03T10:47:46.262Z,77.57
2022-12-03T10:48:46.227Z,78.02
2022-12-03T10:49:46.169Z,77.67
2022-12-03T10:50:46.255Z,77.36
2022-12-03T10:51:46.226Z,77.47
2022-12-03T10:52:46.138Z,77.36
2022-12-03T10:53:46.125Z,77.57
2022-12-03T10:54:46.132Z,77.67
2022-12-03T10:55:46.101Z,77.47
2022-12-03T10:56:46.223Z,77.36
2022-12-03T10:57:46.457Z,77.47
2022-12-03T10:58:46.095Z,77.57
2022-12-03T10:59:46.061Z,77.57
2022-12-03T11:00:46.107Z,78.08
2022-12-03T11:01:46.193Z,77.57
2022-12-03T11:02:48.337Z,77.67
2022-12-03T11:03:47.128Z,77.57
2022-12-03T11:04:46.028Z,77.57
2022-12-03T11:05:45.996Z,77.47
2022-12-03T11:06:46.046Z,77.47
2022-12-03T11:07:46.030Z,77.53
2022-12-03T11:08:47.436Z,77.57
2022-12-03T11:09:45.961Z,77.53
2022-12-03T11:10:45.941Z,77.43
2022-12-03T11:11:45.922Z,77.64
2022-12-03T11:12:45.957Z,77.53
2022-12-03T11:13:45.937Z,77.43
2022-12-03T11:14:45.900Z,77.53
2022-12-03T11:15:45.944Z,77.23
2022-12-03T11:16:45.861Z,77.43
2022-12-03T11:17:45.896Z,77.53
2022-12-03T11:18:45.883Z,77.64
2022-12-03T11:19:45.835Z,77.47
2022-12-03T11:20:45.829Z,77.53
2022-12-03T11:21:45.847Z,77.53
2022-12-03T11:22:45.807Z,77.43
2022-12-03T11:23:45.794Z,77.43
2022-12-03T11:24:45.809Z,77.33
2022-12-03T11:25:45.772Z,77.53
2022-12-03T11:26:45.750Z,77.33
2022-12-03T11:27:45.767Z,77.43
2022-12-03T11:28:45.735Z,77.43
2022-12-03T11:29:45.759Z,77.33
2022-12-03T11:30:45.751Z,77.43
2022-12-03T11:31:45.938Z,77.43
2022-12-03T11:32:45.692Z,77.43
2022-12-03T11:33:45.672Z,77.23
2022-12-03T11:34:45.663Z,77.53
2022-12-03T11:35:45.651Z,77.53
2022-12-03T11:37:01.144Z,77.29
2022-12-03T11:37:46.646Z,77.23
2022-12-03T11:38:52.368Z,77.39
2022-12-03T11:39:46.609Z,77.29
2022-12-03T11:40:45.596Z,77.50
2022-12-03T11:41:45.589Z,77.39
2022-12-03T11:42:45.596Z,77.39
2022-12-03T11:43:45.562Z,77.36
2022-12-03T11:44:45.603Z,77.19
2022-12-03T11:45:45.597Z,77.36
2022-12-03T11:46:45.580Z,77.46
2022-12-03T11:47:45.525Z,77.36
2022-12-03T11:48:45.537Z,77.36
2022-12-03T11:49:45.495Z,77.36
2022-12-03T11:50:45.487Z,77.26
2022-12-03T11:51:45.476Z,77.46
2022-12-03T11:52:45.464Z,77.46
2022-12-03T11:53:45.444Z,77.22
2022-12-03T11:54:45.474Z,77.36
2022-12-03T11:55:45.449Z,77.46
2022-12-03T11:56:45.421Z,77.26
2022-12-03T11:57:45.432Z,77.36
2022-12-03T11:58:45.392Z,77.42
2022-12-03T11:59:45.384Z,77.36
2022-12-03T12:00:45.433Z,77.32
2022-12-03T12:01:45.487Z,77.46
2022-12-03T12:02:45.528Z,77.46
2022-12-03T12:03:45.591Z,77.46
2022-12-03T12:04:45.338Z,77.22
2022-12-03T12:05:45.316Z,77.36
2022-12-03T12:06:50.177Z,77.36
2022-12-03T12:07:46.411Z,77.32
2022-12-03T12:08:45.283Z,77.42
2022-12-03T12:09:45.265Z,77.32
2022-12-03T12:10:45.261Z,77.53
2022-12-03T12:11:45.326Z,77.53
2022-12-03T12:12:53.283Z,77.53
2022-12-03T12:13:46.224Z,77.46
2022-12-03T12:14:45.203Z,77.42
2022-12-03T12:15:45.309Z,77.32
2022-12-03T12:16:45.276Z,77.46
2022-12-03T12:17:45.368Z,77.46
2022-12-03T12:18:45.186Z,77.32
2022-12-03T12:19:49.709Z,77.42
2022-12-03T12:20:46.143Z,77.42
2022-12-03T12:21:45.151Z,77.42
2022-12-03T12:22:45.131Z,77.42
2022-12-03T12:23:45.136Z,77.42
2022-12-03T12:24:45.132Z,77.53
2022-12-03T12:25:47.305Z,77.42
2022-12-03T12:26:46.081Z,77.42
2022-12-03T12:27:45.089Z,77.46
2022-12-03T12:28:45.051Z,77.46
2022-12-03T12:29:45.043Z,77.26
2022-12-03T12:30:45.087Z,77.46
2022-12-03T12:31:47.317Z,77.15
2022-12-03T12:32:46.041Z,77.26
2022-12-03T12:33:45.025Z,77.36
2022-12-03T12:34:44.991Z,77.15
2022-12-03T12:35:44.973Z,77.15
2022-12-03T12:36:44.999Z,77.15
2022-12-03T12:37:47.611Z,77.15
2022-12-03T12:38:44.946Z,77.15
2022-12-03T12:39:44.931Z,77.26
2022-12-03T12:40:44.923Z,77.15
2022-12-03T12:41:44.904Z,77.15
2022-12-03T12:42:44.988Z,77.15
2022-12-03T12:43:44.910Z,77.26
2022-12-03T12:44:44.875Z,77.26
2022-12-03T12:45:44.867Z,77.15
2022-12-03T12:46:48.090Z,77.09
2022-12-03T12:47:44.975Z,77.15
2022-12-03T12:48:44.844Z,77.09
2022-12-03T12:49:50.120Z,77.36
2022-12-03T12:50:45.816Z,77.36
2022-12-03T12:51:44.796Z,77.19
2022-12-03T12:52:44.806Z,77.15